Time;durP1;ratioP1;P1;durP2;ratioP2;P2;SDS_P1;SDS_P2;PMS_P1;PMS_P2;Temp;Humidity;BMP_temperature;BMP_pressure;BME280_temperature;BME280_humidity;BME280_pressure;Samples;Min_cycle;Max_cycle;Signal;HPM_P1;HPM_P2
2022/04/16 00:01:46;;;;;;;;;;;7.90;99.90;;;;;;5089833;28;19920;-75
2022/04/16 00:04:12;;;;;;;;;;;7.90;99.90;;;;;;5089538;28;20296;-75
2022/04/16 00:06:37;;;;;;;;;;;7.90;99.90;;;;;;5089753;28;19920;-75
2022/04/16 00:09:03;;;;;;;;;;;8.00;99.90;;;;;;5088919;28;19920;-75
2022/04/16 00:11:28;;;;;;;;;;;8.10;99.90;;;;;;5071145;28;19927;-76
2022/04/16 00:13:54;;;;;;;;;;;8.10;99.90;;;;;;5089389;28;19919;-75
2022/04/16 00:16:20;;;;;;;;;;;8.10;99.90;;;;;;5070427;28;19947;-75
2022/04/16 00:18:45;;;;;;;;;;;8.10;99.90;;;;;;5089573;28;19965;-76
2022/04/16 00:21:12;;;;;;;;;;;8.20;99.90;;;;;;5092392;28;20344;-76
2022/04/16 00:23:39;;;;;;;;;;;8.20;99.90;;;;;;5075054;28;19920;-75
2022/04/16 00:26:05;;;;;;;;;;;8.20;99.90;;;;;;5092938;28;19965;-76
2022/04/16 00:28:30;;;;;;;;;;;8.20;99.90;;;;;;5092562;28;20378;-76
2022/04/16 00:30:56;;;;;;;;;;;8.20;99.90;;;;;;5091723;28;19926;-75
2022/04/16 00:33:21;;;;;;;;;;;8.20;99.90;;;;;;5091774;28;19920;-76
2022/04/16 00:35:47;;;;;;;;;;;8.30;99.90;;;;;;5092033;28;19961;-76
2022/04/16 00:38:12;;;;;;;;;;;8.20;99.90;;;;;;5093085;28;20349;-76
2022/04/16 00:40:39;;;;;;;;;;;8.20;99.90;;;;;;5093096;28;20419;-76
2022/04/16 00:43:05;;;;;;;;;;;8.20;99.90;;;;;;5091174;28;20355;-76
2022/04/16 00:45:31;;;;;;;;;;;8.20;99.90;;;;;;5059959;28;20440;-75
2022/04/16 00:47:57;;;;;;;;;;;8.20;99.90;;;;;;5070105;28;19924;-75
2022/04/16 00:50:23;;;;;;;;;;;8.20;99.90;;;;;;5073035;28;19924;-76
2022/04/16 00:52:49;;;;;;;;;;;8.20;99.90;;;;;;5074590;28;19920;-76
2022/04/16 00:55:14;;;;;;;;;;;8.10;99.90;;;;;;5091835;28;19930;-76
2022/04/16 00:57:41;;;;;;;;;;;8.10;99.90;;;;;;5091737;28;19920;-76
2022/04/16 01:00:08;;;;;;;;;;;8.10;99.90;;;;;;5091938;28;19954;-76
2022/04/16 01:02:37;;;;;;;;;;;8.10;99.90;;;;;;5077234;28;19924;-75
2022/04/16 01:05:04;;;;;;;;;;;8.10;99.90;;;;;;5071018;28;19920;-76
2022/04/16 01:07:30;;;;;;;;;;;8.10;99.90;;;;;;5036871;28;19924;-76
2022/04/16 01:09:55;;;;;;;;;;;8.20;99.90;;;;;;5071508;28;19920;-76
2022/04/16 01:12:21;;;;;;;;;;;8.30;99.90;;;;;;5071116;28;19936;-76
2022/04/16 01:14:46;;;;;;;;;;;8.20;99.90;;;;;;5070813;28;19960;-76
2022/04/16 01:17:12;;;;;;;;;;;8.20;99.90;;;;;;5071070;28;20404;-75
2022/04/16 01:19:38;;;;;;;;;;;8.20;99.90;;;;;;5085208;28;20298;-76
2022/04/16 01:22:05;;;;;;;;;;;8.30;99.90;;;;;;5089812;28;19920;-76
2022/04/16 01:24:31;;;;;;;;;;;8.30;99.90;;;;;;5073356;28;19920;-76
2022/04/16 01:26:58;;;;;;;;;;;8.30;99.90;;;;;;5090990;28;19927;-75
2022/04/16 01:29:24;;;;;;;;;;;8.30;99.90;;;;;;5090073;28;19977;-76
2022/04/16 01:31:49;;;;;;;;;;;8.20;99.90;;;;;;5089982;28;20376;-75
2022/04/16 01:34:17;;;;;;;;;;;8.30;99.90;;;;;;5091256;28;20283;-76
2022/04/16 01:36:43;;;;;;;;;;;8.30;99.90;;;;;;5072634;28;20057;-76
2022/04/16 01:39:08;;;;;;;;;;;8.30;99.90;;;;;;5090662;28;20389;-76
2022/04/16 01:41:35;;;;;;;;;;;8.40;99.90;;;;;;5091039;28;20007;-75
2022/04/16 01:44:00;;;;;;;;;;;8.40;99.90;;;;;;5091261;28;19938;-76
2022/04/16 01:46:27;;;;;;;;;;;8.40;99.90;;;;;;5090182;28;19924;-76
2022/04/16 01:48:53;;;;;;;;;;;8.40;99.90;;;;;;5091241;28;19924;-76
2022/04/16 01:51:20;;;;;;;;;;;8.50;99.90;;;;;;5090591;28;19950;-76
2022/04/16 01:53:46;;;;;;;;;;;8.50;99.90;;;;;;5077325;28;20384;-76
2022/04/16 01:56:11;;;;;;;;;;;8.60;99.90;;;;;;5070144;28;20015;-76
2022/04/16 01:58:38;;;;;;;;;;;8.60;99.90;;;;;;5070565;28;19963;-76
2022/04/16 02:01:05;;;;;;;;;;;8.60;99.90;;;;;;5052457;28;20039;-76
2022/04/16 02:03:31;;;;;;;;;;;8.60;99.90;;;;;;5069134;28;20446;-76
2022/04/16 02:05:56;;;;;;;;;;;8.60;99.90;;;;;;5070039;28;20014;-76
2022/04/16 02:08:22;;;;;;;;;;;8.60;99.90;;;;;;5070288;28;19920;-76
2022/04/16 02:10:47;;;;;;;;;;;8.60;99.90;;;;;;5070347;28;19925;-76
2022/04/16 02:13:13;;;;;;;;;;;8.60;99.90;;;;;;5069327;28;19927;-76
2022/04/16 02:15:38;;;;;;;;;;;8.60;99.90;;;;;;5052067;28;20390;-75
2022/04/16 02:18:04;;;;;;;;;;;8.70;99.90;;;;;;5069068;28;20003;-75
2022/04/16 02:20:30;;;;;;;;;;;8.70;99.90;;;;;;5068791;28;19920;-76
2022/04/16 02:22:55;;;;;;;;;;;8.70;99.90;;;;;;5069578;28;20436;-76
2022/04/16 02:25:24;;;;;;;;;;;8.60;99.90;;;;;;5070152;28;19920;-76
2022/04/16 02:27:49;;;;;;;;;;;8.60;99.90;;;;;;5052082;28;19920;-75
2022/04/16 02:30:15;;;;;;;;;;;8.60;99.90;;;;;;5069864;28;19935;-75
2022/04/16 02:32:43;;;;;;;;;;;8.60;99.90;;;;;;5070294;28;19921;-76
2022/04/16 02:35:09;;;;;;;;;;;8.60;99.90;;;;;;5068114;28;19920;-76
2022/04/16 02:37:35;;;;;;;;;;;8.60;99.90;;;;;;5069588;28;19931;-76
2022/04/16 02:40:00;;;;;;;;;;;8.50;99.90;;;;;;5069711;28;20003;-76
2022/04/16 02:42:26;;;;;;;;;;;8.50;99.90;;;;;;5069523;28;20390;-75
2022/04/16 02:47:35;;;;;;;;;;;8.40;99.90;;;;;;5068156;28;19921;-76
2022/04/16 02:50:01;;;;;;;;;;;8.30;99.90;;;;;;5068036;28;19951;-76
2022/04/16 02:52:27;;;;;;;;;;;8.30;99.90;;;;;;5070691;28;19959;-76
2022/04/16 02:54:52;;;;;;;;;;;8.20;99.90;;;;;;5090175;28;19920;-76
2022/04/16 02:57:18;;;;;;;;;;;8.20;99.90;;;;;;5089331;28;19919;-76
2022/04/16 02:59:46;;;;;;;;;;;8.20;99.90;;;;;;5089273;28;20713;-76
2022/04/16 03:02:12;;;;;;;;;;;8.20;99.90;;;;;;5088129;28;19927;-76
2022/04/16 03:04:38;;;;;;;;;;;8.20;99.90;;;;;;5089872;28;19920;-76
2022/04/16 03:07:04;;;;;;;;;;;8.20;99.90;;;;;;5088242;28;19927;-76
2022/04/16 03:09:29;;;;;;;;;;;8.10;99.90;;;;;;5088611;28;19930;-76
2022/04/16 03:11:55;;;;;;;;;;;8.20;99.90;;;;;;5089481;28;20410;-76
2022/04/16 03:19:49;;;;;;;;;;;8.10;99.90;;;;;;5089111;28;19971;-76
2022/04/16 03:22:15;;;;;;;;;;;8.10;99.90;;;;;;5089137;28;19982;-76
2022/04/16 03:24:41;;;;;;;;;;;8.10;99.90;;;;;;5089269;28;19979;-76
2022/04/16 03:27:07;;;;;;;;;;;8.10;99.90;;;;;;5089290;28;20011;-76
2022/04/16 03:29:34;;;;;;;;;;;8.10;99.90;;;;;;5089440;28;20279;-76
2022/04/16 03:31:59;;;;;;;;;;;8.10;99.90;;;;;;5089134;28;20012;-76
2022/04/16 03:34:25;;;;;;;;;;;8.00;99.90;;;;;;5088537;28;20426;-75
2022/04/16 03:36:50;;;;;;;;;;;8.00;99.90;;;;;;5089374;28;19978;-76
2022/04/16 03:39:16;;;;;;;;;;;8.00;99.90;;;;;;5087692;28;19963;-76
2022/04/16 03:41:41;;;;;;;;;;;7.90;99.90;;;;;;5088801;28;19920;-76
2022/04/16 03:44:07;;;;;;;;;;;7.90;99.90;;;;;;5088829;28;19963;-76
2022/04/16 03:46:33;;;;;;;;;;;7.90;99.90;;;;;;5088561;28;19920;-76
2022/04/16 03:48:59;;;;;;;;;;;7.90;99.90;;;;;;5071728;28;19942;-76
2022/04/16 03:51:26;;;;;;;;;;;7.80;99.90;;;;;;5088154;28;19977;-76
2022/04/16 03:53:52;;;;;;;;;;;7.80;99.90;;;;;;5075456;28;19968;-76
2022/04/16 04:01:45;;;;;;;;;;;7.70;99.90;;;;;;5073482;28;19920;-76
2022/04/16 04:04:11;;;;;;;;;;;7.70;99.90;;;;;;5073694;28;20282;-76
2022/04/16 04:06:36;;;;;;;;;;;7.70;99.90;;;;;;5071901;28;19928;-76
2022/04/16 04:09:02;;;;;;;;;;;7.70;99.90;;;;;;5072146;28;19974;-76
2022/04/16 04:11:28;;;;;;;;;;;7.70;99.90;;;;;;5073314;28;19920;-76
2022/04/16 04:13:53;;;;;;;;;;;7.70;99.90;;;;;;5071440;28;19938;-76
2022/04/16 04:16:19;;;;;;;;;;;7.70;99.90;;;;;;5072007;28;19924;-76
2022/04/16 04:18:45;;;;;;;;;;;7.70;99.90;;;;;;5071197;28;19930;-76
2022/04/16 04:21:11;;;;;;;;;;;7.70;99.90;;;;;;5054372;28;20011;-76
2022/04/16 04:23:36;;;;;;;;;;;7.70;99.90;;;;;;5070452;28;19920;-76
2022/04/16 04:26:03;;;;;;;;;;;7.70;99.90;;;;;;5072348;28;19982;-76
2022/04/16 04:28:29;;;;;;;;;;;7.70;99.90;;;;;;5072135;28;19928;-75
2022/04/16 04:30:54;;;;;;;;;;;7.70;99.90;;;;;;5071211;28;19931;-76
2022/04/16 04:33:20;;;;;;;;;;;7.60;99.90;;;;;;5071372;28;19939;-76
2022/04/16 04:35:45;;;;;;;;;;;7.60;99.90;;;;;;5071373;28;19920;-76
2022/04/16 04:38:11;;;;;;;;;;;7.60;99.90;;;;;;5072630;28;19920;-76
2022/04/16 04:40:36;;;;;;;;;;;7.60;99.90;;;;;;5071507;28;20457;-76
2022/04/16 04:43:02;;;;;;;;;;;7.50;99.90;;;;;;5072823;28;19920;-76
2022/04/16 04:45:27;;;;;;;;;;;7.50;99.90;;;;;;5072753;28;19921;-76
2022/04/16 04:47:53;;;;;;;;;;;7.50;99.90;;;;;;5072497;28;20015;-76
2022/04/16 04:50:18;;;;;;;;;;;7.50;99.90;;;;;;5072573;28;19943;-76
2022/04/16 04:52:44;;;;;;;;;;;7.50;99.90;;;;;;5076253;28;19927;-76
2022/04/16 04:55:11;;;;;;;;;;;7.50;99.90;;;;;;5091138;28;20025;-76
2022/04/16 04:57:36;;;;;;;;;;;7.40;99.90;;;;;;5092539;28;19927;-76
2022/04/16 05:00:03;;;;;;;;;;;7.40;99.90;;;;;;5091830;28;20754;-76
2022/04/16 05:02:36;;;;;;;;;;;7.40;99.90;;;;;;5091913;28;19927;-76
2022/04/16 05:05:02;;;;;;;;;;;7.40;99.90;;;;;;5074121;28;19921;-76
2022/04/16 05:07:27;;;;;;;;;;;7.40;99.90;;;;;;5091095;28;20297;-76
2022/04/16 05:09:53;;;;;;;;;;;7.40;99.90;;;;;;5092623;28;19927;-76
2022/04/16 05:12:18;;;;;;;;;;;7.40;99.90;;;;;;5091223;28;19989;-75
2022/04/16 05:14:44;;;;;;;;;;;7.40;99.90;;;;;;5092516;28;19970;-76
2022/04/16 05:17:09;;;;;;;;;;;7.40;99.90;;;;;;5091958;28;19927;-76
2022/04/16 05:19:35;;;;;;;;;;;7.40;99.90;;;;;;5090956;28;19928;-76
2022/04/16 05:22:00;;;;;;;;;;;7.30;99.90;;;;;;5092204;28;19986;-76
2022/04/16 05:24:26;;;;;;;;;;;7.40;99.90;;;;;;5092050;28;19926;-76
2022/04/16 05:26:51;;;;;;;;;;;7.40;99.90;;;;;;5091791;28;19928;-76
2022/04/16 05:29:17;;;;;;;;;;;7.40;99.90;;;;;;5092004;28;20343;-76
2022/04/16 05:31:43;;;;;;;;;;;7.40;99.90;;;;;;5092654;28;19920;-76
2022/04/16 05:34:18;;;;;;;;;;;7.40;99.90;;;;;;5090681;28;19951;-76
2022/04/16 05:36:45;;;;;;;;;;;7.40;99.90;;;;;;5091996;28;19920;-76
2022/04/16 05:39:11;;;;;;;;;;;7.30;99.90;;;;;;5090909;28;20340;-76
2022/04/16 05:41:37;;;;;;;;;;;7.30;99.90;;;;;;5091296;28;20397;-76
2022/04/16 05:44:04;;;;;;;;;;;7.40;99.90;;;;;;5090913;28;19920;-75
2022/04/16 05:46:29;;;;;;;;;;;7.30;99.90;;;;;;5090741;28;19990;-76
2022/04/16 05:48:55;;;;;;;;;;;7.30;99.90;;;;;;5073661;28;19928;-76
2022/04/16 05:51:21;;;;;;;;;;;7.30;99.90;;;;;;5091561;28;19920;-76
2022/04/16 05:53:48;;;;;;;;;;;7.30;99.90;;;;;;5077892;28;19927;-74
2022/04/16 05:56:13;;;;;;;;;;;7.30;99.90;;;;;;5070968;28;20380;-75
2022/04/16 05:58:39;;;;;;;;;;;7.30;99.90;;;;;;5071385;28;19950;-74
2022/04/16 06:01:06;;;;;;;;;;;7.30;99.90;;;;;;5070045;28;19920;-75
2022/04/16 06:03:33;;;;;;;;;;;7.30;99.90;;;;;;5071379;28;19921;-75
2022/04/16 06:06:00;;;;;;;;;;;7.30;99.90;;;;;;5071006;28;19920;-75
2022/04/16 06:08:26;;;;;;;;;;;7.30;99.90;;;;;;5071209;28;20011;-75
2022/04/16 06:10:51;;;;;;;;;;;7.40;99.90;;;;;;5069755;28;20007;-75
2022/04/16 06:13:17;;;;;;;;;;;7.40;99.90;;;;;;5070722;28;19921;-75
2022/04/16 06:15:43;;;;;;;;;;;7.40;99.90;;;;;;5071131;28;19927;-75
2022/04/16 06:18:09;;;;;;;;;;;7.40;99.90;;;;;;5069070;28;19924;-75
2022/04/16 06:20:35;;;;;;;;;;;7.50;99.90;;;;;;5069947;28;20306;-75
2022/04/16 06:23:01;;;;;;;;;;;7.50;99.90;;;;;;5053148;28;19963;-75
2022/04/16 06:25:26;;;;;;;;;;;7.50;99.90;;;;;;5070852;28;19967;-75
2022/04/16 06:27:52;;;;;;;;;;;7.50;99.90;;;;;;5070602;28;19920;-75
2022/04/16 06:30:17;;;;;;;;;;;7.50;99.90;;;;;;5052582;28;19920;-75
2022/04/16 06:32:43;;;;;;;;;;;7.60;99.90;;;;;;5070669;28;19921;-75
2022/04/16 06:35:08;;;;;;;;;;;7.60;99.90;;;;;;5070732;28;19920;-75
2022/04/16 06:37:34;;;;;;;;;;;7.60;99.90;;;;;;5070599;28;20448;-75
2022/04/16 06:40:00;;;;;;;;;;;7.50;99.90;;;;;;5069144;28;19921;-76
2022/04/16 06:42:26;;;;;;;;;;;7.60;99.90;;;;;;5069349;28;20256;-76
2022/04/16 06:44:51;;;;;;;;;;;7.60;99.90;;;;;;5070260;28;19920;-76
2022/04/16 06:47:17;;;;;;;;;;;7.60;99.90;;;;;;5068948;28;19928;-75
2022/04/16 06:49:42;;;;;;;;;;;7.60;99.90;;;;;;5069409;28;20382;-76
2022/04/16 06:52:09;;;;;;;;;;;7.60;99.90;;;;;;5068540;28;19927;-75
2022/04/16 06:54:35;;;;;;;;;;;7.60;99.90;;;;;;5089330;28;19982;-75
2022/04/16 06:57:00;;;;;;;;;;;7.60;99.90;;;;;;5086675;28;20013;-75
2022/04/16 06:59:26;;;;;;;;;;;7.60;99.90;;;;;;5055073;28;19927;-75
2022/04/16 07:01:51;;;;;;;;;;;7.60;99.90;;;;;;5068242;28;20011;-75
2022/04/16 07:04:17;;;;;;;;;;;7.70;99.90;;;;;;5070197;28;19920;-76
2022/04/16 07:06:42;;;;;;;;;;;7.80;99.90;;;;;;5071203;28;19928;-75
2022/04/16 07:09:10;;;;;;;;;;;7.80;99.90;;;;;;5070301;28;19955;-75
2022/04/16 07:11:35;;;;;;;;;;;7.80;99.90;;;;;;5070892;28;19920;-75
2022/04/16 07:14:01;;;;;;;;;;;7.80;99.90;;;;;;5070412;28;19920;-75
2022/04/16 07:16:26;;;;;;;;;;;7.70;99.90;;;;;;5071075;28;19920;-75
2022/04/16 07:18:52;;;;;;;;;;;7.70;99.90;;;;;;5067098;28;20370;-75
2022/04/16 07:21:17;;;;;;;;;;;7.70;99.90;;;;;;5070564;28;19928;-75
2022/04/16 07:23:43;;;;;;;;;;;7.80;99.90;;;;;;5088923;28;19920;-74
2022/04/16 07:26:08;;;;;;;;;;;7.90;99.90;;;;;;5065954;28;19963;-75
2022/04/16 07:28:34;;;;;;;;;;;7.90;99.90;;;;;;5069824;28;19920;-75
2022/04/16 07:30:59;;;;;;;;;;;8.00;99.90;;;;;;5088304;28;20245;-75
2022/04/16 07:33:27;;;;;;;;;;;8.00;99.90;;;;;;5088563;28;20351;-76
2022/04/16 07:35:53;;;;;;;;;;;8.10;99.90;;;;;;5087942;28;19973;-75
2022/04/16 07:38:18;;;;;;;;;;;8.10;99.90;;;;;;5088483;28;19920;-75
2022/04/16 07:40:44;;;;;;;;;;;8.10;99.90;;;;;;5088790;28;19920;-75
2022/04/16 07:43:09;;;;;;;;;;;8.10;99.90;;;;;;5088814;28;19927;-76
2022/04/16 07:45:35;;;;;;;;;;;8.10;99.90;;;;;;5070054;28;20012;-75
2022/04/16 07:48:00;;;;;;;;;;;8.20;99.90;;;;;;5087384;28;20194;-76
2022/04/16 07:50:26;;;;;;;;;;;8.20;99.90;;;;;;5084160;28;19928;-75
2022/04/16 07:52:51;;;;;;;;;;;8.20;99.90;;;;;;5069981;28;19955;-75
2022/04/16 07:55:17;;;;;;;;;;;8.30;99.90;;;;;;5070313;28;20028;-75
2022/04/16 07:57:43;;;;;;;;;;;8.30;99.90;;;;;;5070212;28;19920;-76
2022/04/16 08:00:09;;;;;;;;;;;8.40;99.90;;;;;;5070473;28;19926;-75
2022/04/16 08:02:35;;;;;;;;;;;8.50;99.90;;;;;;5087844;28;19930;-75
2022/04/16 08:05:01;;;;;;;;;;;8.50;99.90;;;;;;5070450;28;20374;-75
2022/04/16 08:07:26;;;;;;;;;;;8.60;99.90;;;;;;5070086;28;19931;-75
2022/04/16 08:09:52;;;;;;;;;;;8.70;99.90;;;;;;5089301;28;20569;-74
2022/04/16 08:12:17;;;;;;;;;;;8.70;99.90;;;;;;5088736;28;19920;-75
2022/04/16 08:14:43;;;;;;;;;;;8.70;99.90;;;;;;5089267;28;20459;-74
2022/04/16 08:17:08;;;;;;;;;;;8.80;99.90;;;;;;5065436;28;19951;-74
2022/04/16 08:19:34;;;;;;;;;;;8.90;99.90;;;;;;5069710;28;20376;-74
2022/04/16 08:22:00;;;;;;;;;;;8.90;99.90;;;;;;5087951;28;19926;-74
2022/04/16 08:26:53;;;;;;;;;;;9.00;99.90;;;;;;5089320;28;19924;-74
2022/04/16 08:29:19;;;;;;;;;;;9.00;99.90;;;;;;5070960;28;19973;-74
2022/04/16 08:31:45;;;;;;;;;;;9.10;99.90;;;;;;5070221;28;19947;-74
2022/04/16 08:34:10;;;;;;;;;;;9.20;99.90;;;;;;5071218;28;19920;-74
2022/04/16 08:36:36;;;;;;;;;;;9.20;99.90;;;;;;5070512;28;19980;-75
2022/04/16 08:39:03;;;;;;;;;;;9.20;99.90;;;;;;5070538;28;19920;-74
2022/04/16 08:41:28;;;;;;;;;;;9.20;99.90;;;;;;5090201;28;20021;-74
2022/04/16 08:43:56;;;;;;;;;;;9.30;99.90;;;;;;5093200;28;20026;-74
2022/04/16 08:46:22;;;;;;;;;;;9.40;99.90;;;;;;5090385;28;19973;-75
2022/04/16 08:48:48;;;;;;;;;;;9.40;99.90;;;;;;5089128;28;19927;-74
2022/04/16 08:51:15;;;;;;;;;;;9.50;99.90;;;;;;5074337;28;19974;-74
2022/04/16 08:53:41;;;;;;;;;;;9.60;99.90;;;;;;5074353;28;19946;-74
2022/04/16 08:56:06;;;;;;;;;;;9.60;99.90;;;;;;5092522;28;19919;-74
2022/04/16 08:58:32;;;;;;;;;;;9.70;99.90;;;;;;5075121;28;19927;-73
2022/04/16 09:00:59;;;;;;;;;;;9.70;99.90;;;;;;5092618;28;19923;-73
2022/04/16 09:03:34;;;;;;;;;;;9.80;99.90;;;;;;5074108;28;20181;-74
2022/04/16 09:06:00;;;;;;;;;;;9.90;99.90;;;;;;5073337;28;19926;-74
2022/04/16 09:08:26;;;;;;;;;;;9.90;99.90;;;;;;5090886;28;20625;-74
2022/04/16 09:11:03;;;;;;;;;;;10.00;99.90;;;;;;5092410;28;19924;-74
2022/04/16 09:13:28;;;;;;;;;;;10.10;99.90;;;;;;5092242;28;19938;-73
2022/04/16 09:16:02;;;;;;;;;;;10.20;99.90;;;;;;5092360;28;19920;-74
2022/04/16 09:18:27;;;;;;;;;;;10.30;99.90;;;;;;5071726;28;20632;-74
2022/04/16 09:20:53;;;;;;;;;;;10.50;99.90;;;;;;5091801;28;20006;-74
2022/04/16 09:23:19;;;;;;;;;;;10.90;99.90;;;;;;5092135;28;19962;-74
2022/04/16 09:25:45;;;;;;;;;;;11.50;99.80;;;;;;5092009;28;20405;-74
2022/04/16 09:28:12;;;;;;;;;;;12.20;97.40;;;;;;5091018;28;19920;-74
2022/04/16 09:30:47;;;;;;;;;;;12.80;95.90;;;;;;5091660;28;20007;-73
2022/04/16 09:33:13;;;;;;;;;;;13.30;93.80;;;;;;5091731;28;19988;-73
2022/04/16 09:35:39;;;;;;;;;;;13.70;92.20;;;;;;5091752;28;20539;-73
2022/04/16 09:38:06;;;;;;;;;;;14.00;90.60;;;;;;5092077;28;19924;-73
2022/04/16 09:40:33;;;;;;;;;;;14.10;82.50;;;;;;5090800;28;20382;-73
2022/04/16 09:43:01;;;;;;;;;;;14.20;86.60;;;;;;5071745;28;19920;-74
2022/04/16 09:45:27;;;;;;;;;;;14.40;84.40;;;;;;5091732;28;20355;-74
2022/04/16 09:47:52;;;;;;;;;;;14.60;81.90;;;;;;5090770;28;20325;-74
2022/04/16 09:50:19;;;;;;;;;;;14.80;83.70;;;;;;5090593;28;19927;-74
2022/04/16 09:52:49;;;;;;;;;;;15.20;84.20;;;;;;5074594;28;19920;-74
2022/04/16 09:55:15;;;;;;;;;;;15.50;80.70;;;;;;5091272;28;20044;-74
2022/04/16 09:57:41;;;;;;;;;;;15.80;80.80;;;;;;5090595;28;19989;-75
2022/04/16 10:00:07;;;;;;;;;;;16.00;74.70;;;;;;5091484;28;19920;-75
2022/04/16 10:02:34;;;;;;;;;;;16.00;74.40;;;;;;5090943;28;19927;-75
2022/04/16 10:05:00;;;;;;;;;;;16.00;69.60;;;;;;5091070;28;20034;-74
2022/04/16 10:07:26;;;;;;;;;;;15.90;69.60;;;;;;5072138;28;20018;-74
2022/04/16 10:09:53;;;;;;;;;;;15.90;68.10;;;;;;5090306;28;19920;-74
2022/04/16 10:15:06;;;;;;;;;;;15.90;66.80;;;;;;5091100;28;19927;-74
2022/04/16 10:17:35;;;;;;;;;;;16.00;66.50;;;;;;5056049;28;19920;-75
2022/04/16 10:20:10;;;;;;;;;;;16.00;63.10;;;;;;5072945;28;19920;-74
2022/04/16 10:22:36;;;;;;;;;;;16.20;65.10;;;;;;5073113;28;19920;-74
2022/04/16 10:25:02;;;;;;;;;;;16.40;66.00;;;;;;5072350;28;20348;-74
2022/04/16 10:27:30;;;;;;;;;;;16.70;66.80;;;;;;5090144;28;19920;-74
2022/04/16 10:30:00;;;;;;;;;;;16.90;66.70;;;;;;5071598;28;19920;-74
2022/04/16 10:32:27;;;;;;;;;;;17.20;63.80;;;;;;5090797;28;20668;-75
2022/04/16 10:35:01;;;;;;;;;;;17.10;59.00;;;;;;5069855;28;19920;-74
2022/04/16 10:37:35;;;;;;;;;;;17.10;61.40;;;;;;5070782;28;19931;-74
2022/04/16 10:40:01;;;;;;;;;;;17.10;58.20;;;;;;5076485;28;20007;-74
2022/04/16 10:42:31;;;;;;;;;;;17.10;57.40;;;;;;5069991;28;19995;-74
2022/04/16 10:45:05;;;;;;;;;;;17.10;57.50;;;;;;5088025;28;20385;-74
2022/04/16 10:47:34;;;;;;;;;;;17.00;55.80;;;;;;5085468;28;19924;-74
2022/04/16 10:50:06;;;;;;;;;;;17.00;55.40;;;;;;5071170;28;20387;-74
2022/04/16 10:52:32;;;;;;;;;;;17.10;58.60;;;;;;5088087;28;19924;-74
2022/04/16 10:55:01;;;;;;;;;;;17.10;52.80;;;;;;5070960;28;19930;-74
2022/04/16 10:57:27;;;;;;;;;;;17.00;51.00;;;;;;5070897;28;19920;-74
2022/04/16 10:59:56;;;;;;;;;;;16.90;50.90;;;;;;5054057;28;19927;-74
2022/04/16 11:02:24;;;;;;;;;;;16.90;53.70;;;;;;5070556;28;19953;-74
2022/04/16 11:04:55;;;;;;;;;;;17.10;55.80;;;;;;5089344;28;19920;-74
2022/04/16 11:07:23;;;;;;;;;;;17.40;54.90;;;;;;5088573;28;19930;-74
2022/04/16 11:09:52;;;;;;;;;;;17.60;53.90;;;;;;5054185;28;20020;-74
2022/04/16 11:12:19;;;;;;;;;;;17.80;53.40;;;;;;5070023;28;19924;-74
2022/04/16 11:14:47;;;;;;;;;;;17.90;54.10;;;;;;5088926;28;19930;-74
2022/04/16 11:17:13;;;;;;;;;;;17.90;51.10;;;;;;5089008;28;20381;-74
2022/04/16 11:19:38;;;;;;;;;;;18.00;53.30;;;;;;5071603;28;19927;-74
2022/04/16 11:22:05;;;;;;;;;;;18.10;50.70;;;;;;5070839;28;19924;-75
2022/04/16 11:24:30;;;;;;;;;;;18.10;51.80;;;;;;5071121;28;19928;-74
2022/04/16 11:35:14;;;;;;;;;;;18.30;48.30;;;;;;5070732;28;19920;-74
2022/04/16 11:37:40;;;;;;;;;;;18.50;52.70;;;;;;5071724;28;20336;-74
2022/04/16 11:40:07;;;;;;;;;;;18.50;48.10;;;;;;5069378;28;19936;-74
2022/04/16 11:42:33;;;;;;;;;;;18.40;51.40;;;;;;5089003;28;19920;-74
2022/04/16 11:44:58;;;;;;;;;;;18.30;50.30;;;;;;5087601;28;20378;-73
2022/04/16 11:47:26;;;;;;;;;;;18.10;47.40;;;;;;5089702;28;19966;-73
2022/04/16 11:49:53;;;;;;;;;;;18.00;48.40;;;;;;5056591;28;19920;-74
2022/04/16 11:52:23;;;;;;;;;;;18.10;49.60;;;;;;5070374;28;19920;-74
2022/04/16 11:54:58;;;;;;;;;;;18.40;50.30;;;;;;5089384;28;19920;-74
2022/04/16 11:57:25;;;;;;;;;;;18.60;51.10;;;;;;5066576;28;19920;-73
2022/04/16 11:59:57;;;;;;;;;;;18.80;49.70;;;;;;5069644;28;20432;-74
2022/04/16 12:02:28;;;;;;;;;;;19.00;49.10;;;;;;5069372;28;19960;-73
2022/04/16 12:04:53;;;;;;;;;;;19.20;48.40;;;;;;5068839;28;19920;-74
2022/04/16 12:07:20;;;;;;;;;;;19.30;49.80;;;;;;5069353;28;20298;-73
2022/04/16 12:09:49;;;;;;;;;;;19.30;45.70;;;;;;5069324;28;19931;-74
2022/04/16 12:12:18;;;;;;;;;;;19.10;45.60;;;;;;5077186;28;20014;-73
2022/04/16 12:14:45;;;;;;;;;;;19.00;47.20;;;;;;5089510;28;19994;-73
2022/04/16 12:17:10;;;;;;;;;;;19.00;47.10;;;;;;5090933;28;19927;-73
2022/04/16 12:19:36;;;;;;;;;;;19.20;48.30;;;;;;5092626;28;19920;-73
2022/04/16 12:22:02;;;;;;;;;;;19.40;49.70;;;;;;5093091;28;20765;-73
2022/04/16 12:24:28;;;;;;;;;;;19.50;46.80;;;;;;5074453;28;20573;-73
2022/04/16 12:26:55;;;;;;;;;;;19.50;46.60;;;;;;5093685;28;19920;-75
2022/04/16 12:29:28;;;;;;;;;;;19.50;46.80;;;;;;5075008;28;19970;-75
2022/04/16 12:31:57;;;;;;;;;;;19.60;45.50;;;;;;5092227;28;19999;-75
2022/04/16 12:34:23;;;;;;;;;;;19.80;46.90;;;;;;5093248;28;19927;-75
2022/04/16 12:36:49;;;;;;;;;;;19.80;44.20;;;;;;5075078;28;19920;-75
2022/04/16 12:39:14;;;;;;;;;;;19.80;45.30;;;;;;5074406;28;20011;-75
2022/04/16 12:41:40;;;;;;;;;;;19.80;44.90;;;;;;5075162;28;20386;-75
2022/04/16 12:44:05;;;;;;;;;;;19.90;43.90;;;;;;5092819;28;19927;-75
2022/04/16 12:46:30;;;;;;;;;;;19.90;44.80;;;;;;5091317;28;19920;-75
2022/04/16 12:48:57;;;;;;;;;;;20.00;43.50;;;;;;5092916;28;20340;-75
2022/04/16 12:51:22;;;;;;;;;;;20.10;45.80;;;;;;5093193;28;19958;-75
2022/04/16 12:53:48;;;;;;;;;;;20.00;43.80;;;;;;5093027;28;19960;-75
2022/04/16 12:56:13;;;;;;;;;;;20.10;43.50;;;;;;5074391;28;19920;-75
2022/04/16 12:58:39;;;;;;;;;;;20.10;44.40;;;;;;5073890;28;19927;-75
2022/04/16 13:01:04;;;;;;;;;;;20.10;46.10;;;;;;5072300;28;20340;-75
2022/04/16 13:03:30;;;;;;;;;;;20.30;44.30;;;;;;5091195;28;19920;-75
2022/04/16 13:05:55;;;;;;;;;;;20.40;42.90;;;;;;5091234;28;19919;-75
2022/04/16 13:09:02;;;;;;;3.75;1.90;;;20.40;42.00;;;;;;5126254;27;20710;-74
2022/04/16 13:11:28;;;;;;;3.25;1.60;;;20.40;41.80;;;;;;5075155;28;20513;-74
2022/04/16 13:13:54;;;;;;;4.88;2.25;;;20.50;45.00;;;;;;5067553;28;20418;-74
2022/04/16 13:16:20;;;;;;;4.00;2.27;;;20.70;43.70;;;;;;5066535;28;20506;-75
2022/04/16 13:18:48;;;;;;;5.03;2.40;;;20.70;42.60;;;;;;5092647;28;20498;-75
2022/04/16 13:21:13;;;;;;;4.18;2.58;;;20.90;42.90;;;;;;5068130;28;20435;-74
2022/04/16 13:23:39;;;;;;;4.23;2.33;;;20.90;42.60;;;;;;5065713;28;20943;-74
2022/04/16 13:26:05;;;;;;;4.72;2.35;;;21.00;43.50;;;;;;5083766;28;20800;-74
2022/04/16 13:28:30;;;;;;;4.20;2.10;;;21.20;43.60;;;;;;5065661;28;20773;-75
2022/04/16 13:30:57;;;;;;;3.83;2.13;;;21.50;43.40;;;;;;5070087;28;20490;-74
2022/04/16 13:33:23;;;;;;;3.50;2.00;;;21.60;41.30;;;;;;5083545;28;20480;-73
2022/04/16 13:35:49;;;;;;;4.10;2.00;;;21.70;41.30;;;;;;5073013;28;21155;-74
2022/04/16 13:38:15;;;;;;;3.40;1.80;;;21.80;41.90;;;;;;5076155;28;20439;-75
2022/04/16 13:43:25;;;;;;;2.65;1.50;;;22.20;41.40;;;;;;5093801;28;20425;-73
2022/04/16 13:45:50;;;;;;;3.22;1.60;;;22.30;40.90;;;;;;5067955;28;20423;-73
2022/04/16 13:48:17;;;;;;;2.38;1.35;;;22.30;41.90;;;;;;5075619;28;20863;-73
2022/04/16 13:50:42;;;;;;;2.50;1.40;;;22.30;39.50;;;;;;5086626;28;20393;-73
2022/04/16 13:53:08;;;;;;;3.63;1.42;;;22.20;39.60;;;;;;5075482;28;20399;-73
2022/04/16 13:55:34;;;;;;;2.87;1.30;;;22.10;39.10;;;;;;5069208;28;20810;-73
2022/04/16 13:57:59;;;;;;;7.70;1.60;;;22.10;38.80;;;;;;5061224;28;20404;-73
2022/04/16 14:00:26;;;;;;;3.42;1.50;;;21.90;39.10;;;;;;5059287;28;20758;-73
2022/04/16 14:02:51;;;;;;;4.32;1.77;;;21.80;38.70;;;;;;5075501;28;20409;-74
2022/04/16 14:08:01;;;;;;;2.80;1.70;;;22.20;41.50;;;;;;5059426;28;20492;-73
2022/04/16 14:10:27;;;;;;;3.05;1.50;;;22.60;40.80;;;;;;5063645;28;20923;-74
2022/04/16 14:12:54;;;;;;;2.83;1.50;;;22.70;40.60;;;;;;5081342;28;20422;-74
2022/04/16 14:15:20;;;;;;;2.53;1.40;;;22.70;39.70;;;;;;5082761;28;20905;-73
2022/04/16 14:17:45;;;;;;;2.77;1.40;;;22.70;39.50;;;;;;5078698;28;20485;-73
2022/04/16 14:20:11;;;;;;;2.75;1.55;;;22.70;37.30;;;;;;5063207;28;20412;-73
2022/04/16 14:22:37;;;;;;;4.40;1.77;;;22.50;39.10;;;;;;5068057;28;20909;-74
2022/04/16 14:25:03;;;;;;;2.83;1.40;;;22.60;39.40;;;;;;5064452;28;20400;-74
2022/04/16 14:27:29;;;;;;;3.25;1.40;;;22.70;38.20;;;;;;5053404;28;20477;-73
2022/04/16 14:29:56;;;;;;;2.85;1.60;;;22.60;36.60;;;;;;5067775;28;20766;-73
2022/04/16 14:32:22;;;;;;;2.70;1.65;;;22.40;38.00;;;;;;5067615;28;20423;-73
2022/04/16 14:34:48;;;;;;;4.27;1.70;;;22.30;39.70;;;;;;5058524;28;20405;-73
2022/04/16 14:37:14;;;;;;;2.88;1.50;;;22.50;39.30;;;;;;5048141;28;20446;-74
2022/04/16 14:39:40;;;;;;;3.30;1.60;;;22.60;37.70;;;;;;5066500;28;20761;-73
2022/04/16 14:42:06;;;;;;;2.73;1.40;;;22.50;37.00;;;;;;5065224;28;20448;-73